Debs, MN

1:17 PM CST on December 06, 2016 (GMT -0600)
| | Change Station
Active Advisory: Winter Weather Advisory Active Notice: Public Information Statement

Elev -9999 ft 0.00 °N, 0.00 °E | Updated

Snow
Snow
26 °F
Feels Like 16 °F
N
13
Wind Variable Wind from WSW
Gusts 20 mph

Today
High -- | Low -- °F
--% Chance of Precip.
Yesterday
High -- | Low -- °F
Precip. -- in
Pressure 29.24 in
Visibility 1.5 miles
Clouds Overcast 1200 ft
Windchill 16 °F
Dew Point 22 °F
Humidity 84%
Rainfall --
Snow Depth Not available.
7:54 AM 4:28 PM
Waxing Crescent, 44% visible
METAR KFSE 061854Z AUTO 24011KT 1 1/2SM -SN OVC012 M04/M06 A2924 RMK AO2
Pressure 29.24 in
Visibility 1.5 miles
Clouds Overcast 1200 ft
Windchill 16 °F
Dew Point 22 °F
Humidity 84%
Rainfall --
Snow Depth Not available.
7:54 AM 4:28 PM
Waxing Crescent, 44% visible
METAR KFSE 061854Z AUTO 24011KT 1 1/2SM -SN OVC012 M04/M06 A2924 RMK AO2

10-Day Weather Forecast

Almanac

Astronomy

Dec. 06, 2016 Rise Set
Actual Time
Civil Twilight
Nautical Twilight
Astronomical Twilight
Moon
Length of Visible Light
Length of Day
Tomorrow will be .
, % of the Moon is Illuminated

Today's Extremes

State Highs State Lows

Community

WunderPhotos

Upload Photos

1,956,015 photos uploaded!

WunderBlog® & News

Nearby

Air Quality

  Air Quality AQ Index Pollutant
Not available.

Snow Depth

Station Depth Elevation

Earthquake Activity

City Distance Mag. Time & Date
Minimum magnitude displayed is 2.5.

Coastal Water Temperatures

Place Temperature

Stations

Nearby Weather Stations

Station Location Temp. Windchill Dew Point Humidity Wind Precip. Elev Updated Type
                   

Watches & Warnings

Winter Weather Advisory
Issued: 12:05 PM CST Dec. 6, 2016 – National Weather Service

... Winter Weather Advisory remains in effect until midnight CST
tonight...

* timing... periods of snow will redevelop this afternoon.

* Snow accumulations... 4 to 6 inches.

* Winds / visibilities... look for reduced visibilities at times.

Precautionary/preparedness actions...

A Winter Weather Advisory means that periods of snow will cause
travel difficulties. Be prepared for slippery roads and limited
visibilities... and use caution while driving. The latest Road
conditions for the state you are calling from can be obtained by
calling 5 1 1.